Kezdőlap
METAR-TAF:

METAR-TAF

Repülőterek :

Pella Municipal Airport

Pella, Iowa, Amerikai Egyesült Államok

földrajzi szélesség: 41-24N, földrajzi hosszúság: 092-56W, magasság: 270 m

Jelenlegi meteorológiai megfigyelések

A jelentés 28 perccel ezelõtt készült, 13:15 UTC
Szélcsend
Hőmérséklet -13°C
Páratartalom 85%
Légköri nyomás 1021 hPa
Látótávolság: 16.1 km
Derült ég

METAR: KPEA 151315Z AUTO 00000KT 10SM CLR M13/M15 A3014 RMK AO2 T11281152

Idő: 07:43 (13:43 UTC)


TAF: hiányzik

Meteorológiai megfigyelések és előrejelzések több, mint 4000 repülőtéren (METAR és TAF jelentéseket).

A térképen piros és sárga pontok jelzik az elérhető meteorológiai állomásokat.

Mozgassa az egeret a pont fölött, hogy megjelenjen az állomás neve.

Azután kattintson az időjárási megfigyelések és előrejelzések megtekintéséhez.

A térkép megváltoztatása: kattintson a fekete keresztel jelölt zöld gombra ráközelítéshez, a vonallal jelölt zöld gombra távolításhoz, vagy a zöld nyilakra a szomszédos térképek eléréséhez.


METAR-TAF: